Time;durP1;ratioP1;P1;durP2;ratioP2;P2;SDS_P1;SDS_P2;PMS_P1;PMS_P2;Temp;Humidity;BMP_temperature;BMP_pressure;BME280_temperature;BME280_humidity;BME280_pressure;Samples;Min_cycle;Max_cycle;Signal;HPM_P1;HPM_P2
2023/09/08 00:00:56;;;;;;;8.67;7.60;;;20.10;99.90;;;;;;4956822;28;20223;-69
2023/09/08 00:03:22;;;;;;;10.83;6.83;;;20.00;99.90;;;;;;4955100;28;20453;-69
2023/09/08 00:05:47;;;;;;;7.77;7.07;;;20.00;99.90;;;;;;4955086;28;20868;-68
2023/09/08 00:08:13;;;;;;;9.13;7.80;;;19.90;99.90;;;;;;4954809;28;20192;-68
2023/09/08 00:10:38;;;;;;;9.27;7.50;;;19.90;99.90;;;;;;4954978;29;20177;-69
2023/09/08 00:13:04;;;;;;;9.00;7.70;;;19.90;99.90;;;;;;4954877;29;20252;-69
2023/09/08 00:15:30;;;;;;;8.23;7.43;;;19.90;99.90;;;;;;4954659;29;20261;-70
2023/09/08 00:17:57;;;;;;;8.37;7.50;;;20.00;99.90;;;;;;4954715;28;20184;-68
2023/09/08 00:20:22;;;;;;;12.40;7.47;;;20.00;99.90;;;;;;4954699;28;20179;-70
2023/09/08 00:22:48;;;;;;;8.70;7.37;;;19.90;99.90;;;;;;4954759;28;20418;-69
2023/09/08 00:25:14;;;;;;;9.33;7.77;;;19.90;99.90;;;;;;4954995;29;20177;-69
2023/09/08 00:27:39;;;;;;;8.40;7.60;;;19.80;99.90;;;;;;4954666;28;20262;-69
2023/09/08 00:30:06;;;;;;;8.10;7.20;;;19.80;99.90;;;;;;4954978;28;20227;-69
2023/09/08 00:32:31;;;;;;;9.90;7.20;;;19.80;99.90;;;;;;4955059;28;20586;-69
2023/09/08 00:34:57;;;;;;;7.83;7.13;;;19.80;99.90;;;;;;4955069;29;20513;-71
2023/09/08 00:37:23;;;;;;;9.40;8.50;;;19.80;99.90;;;;;;4954301;28;20192;-69
2023/09/08 00:39:49;;;;;;;7.73;6.97;;;19.80;99.90;;;;;;4954379;28;20260;-70
2023/09/08 00:42:15;;;;;;;7.90;7.20;;;19.70;99.90;;;;;;4954485;28;20582;-70
2023/09/08 00:44:40;;;;;;;8.70;7.20;;;19.70;99.90;;;;;;4954673;28;20188;-69
2023/09/08 00:47:06;;;;;;;8.20;7.40;;;19.70;99.90;;;;;;4954605;29;20253;-69
2023/09/08 00:49:32;;;;;;;8.30;7.43;;;19.70;99.90;;;;;;4954232;29;20171;-70
2023/09/08 00:51:57;;;;;;;8.60;7.70;;;19.70;99.90;;;;;;4954615;28;20581;-70
2023/09/08 00:54:23;;;;;;;11.53;8.30;;;19.60;99.90;;;;;;4954371;29;20258;-71
2023/09/08 00:56:53;;;;;;;8.33;6.97;;;19.60;99.90;;;;;;4954053;29;20658;-71
2023/09/08 00:59:19;;;;;;;8.20;7.50;;;19.60;99.90;;;;;;4953897;28;20669;-70
2023/09/08 01:01:44;;;;;;;7.17;6.47;;;19.50;99.90;;;;;;4954052;29;20409;-69
2023/09/08 01:04:10;;;;;;;10.63;8.70;;;19.50;99.90;;;;;;4954059;29;20164;-71
2023/09/08 01:06:37;;;;;;;8.50;7.37;;;19.50;99.90;;;;;;4954075;29;20206;-71
2023/09/08 01:09:03;;;;;;;7.73;7.03;;;19.40;99.90;;;;;;4973955;23;20227;-68
2023/09/08 01:11:30;;;;;;;8.37;7.57;;;19.40;99.90;;;;;;4952202;29;20753;-68
2023/09/08 01:13:55;;;;;;;8.03;7.33;;;19.40;99.90;;;;;;4952472;28;20906;-68
2023/09/08 01:16:21;;;;;;;8.40;7.60;;;19.30;99.90;;;;;;4952644;28;20446;-68
2023/09/08 01:18:48;;;;;;;7.90;7.10;;;19.30;99.90;;;;;;4952328;29;20298;-69
2023/09/08 01:21:42;;;;;;;9.50;8.10;;;19.20;99.90;;;;;;4952505;28;20580;-69
2023/09/08 01:24:37;;;;;;;8.87;7.17;;;19.20;99.90;;;;;;4952360;29;20424;-69
2023/09/08 01:27:03;;;;;;;10.53;8.17;;;19.20;99.90;;;;;;4949879;28;20516;-69
2023/09/08 01:29:30;;;;;;;10.33;7.93;;;19.20;99.90;;;;;;4951916;29;20419;-68
2023/09/08 01:31:56;;;;;;;9.80;7.60;;;19.20;99.90;;;;;;4952183;28;20760;-68
2023/09/08 01:34:22;;;;;;;9.33;7.60;;;19.10;99.90;;;;;;4952079;29;20447;-67
2023/09/08 01:36:48;;;;;;;9.57;8.67;;;19.10;99.90;;;;;;4952168;29;20421;-68
2023/09/08 01:39:13;;;;;;;9.30;7.90;;;19.10;99.90;;;;;;4951995;28;20279;-68
2023/09/08 01:41:39;;;;;;;8.80;8.10;;;19.10;99.90;;;;;;4952173;28;20226;-68
2023/09/08 01:44:07;;;;;;;8.57;7.80;;;19.10;99.90;;;;;;4952117;29;20167;-68
2023/09/08 01:46:34;;;;;;;9.80;7.37;;;19.00;99.90;;;;;;4952110;28;20638;-68
2023/09/08 01:48:59;;;;;;;8.03;7.27;;;19.00;99.90;;;;;;4953693;28;20423;-69
2023/09/08 01:51:25;;;;;;;11.93;7.37;;;19.00;99.90;;;;;;4956195;29;20893;-69
2023/09/08 01:53:51;;;;;;;9.53;7.33;;;19.00;99.90;;;;;;4956355;29;20258;-67
2023/09/08 01:56:16;;;;;;;8.83;6.93;;;18.90;99.90;;;;;;4956082;28;20682;-69
2023/09/08 01:58:42;;;;;;;10.07;8.20;;;19.00;99.90;;;;;;4954303;28;20907;-69
2023/09/08 02:01:07;;;;;;;8.63;7.43;;;18.90;99.90;;;;;;4956427;29;20196;-70
2023/09/08 02:03:33;;;;;;;7.67;6.97;;;18.90;99.90;;;;;;4955886;28;20534;-68
2023/09/08 02:05:59;;;;;;;8.90;8.10;;;18.80;99.90;;;;;;4955893;29;20172;-69
2023/09/08 02:08:24;;;;;;;8.27;7.47;;;18.80;99.90;;;;;;4955352;28;20281;-69
2023/09/08 02:10:50;;;;;;;8.83;8.00;;;18.70;99.90;;;;;;4955770;28;20556;-69
2023/09/08 02:13:15;;;;;;;9.00;8.13;;;18.70;99.90;;;;;;4955911;28;20234;-68
2023/09/08 02:15:41;;;;;;;8.17;7.30;;;18.70;99.90;;;;;;4955772;28;20288;-69
2023/09/08 02:18:07;;;;;;;8.37;7.57;;;18.70;99.90;;;;;;4955708;28;20277;-68
2023/09/08 02:20:33;;;;;;;10.70;7.53;;;18.60;99.90;;;;;;4955660;29;20598;-69
2023/09/08 02:23:05;;;;;;;11.00;7.90;;;18.50;99.90;;;;;;4955452;29;20422;-69
2023/09/08 02:25:30;;;;;;;10.17;9.10;;;18.60;99.90;;;;;;4955537;29;20171;-69
2023/09/08 02:27:56;;;;;;;12.63;7.87;;;18.50;99.90;;;;;;4955184;29;20446;-68
2023/09/08 02:30:21;;;;;;;8.53;7.73;;;18.50;99.90;;;;;;4955356;29;20162;-68
2023/09/08 02:32:47;;;;;;;9.60;8.67;;;18.50;99.90;;;;;;4955369;28;20173;-69
2023/09/08 02:35:13;;;;;;;8.80;7.83;;;18.50;99.90;;;;;;4955465;28;20654;-69
2023/09/08 02:37:38;;;;;;;8.27;7.57;;;18.40;99.90;;;;;;4955236;28;20170;-69
2023/09/08 02:40:06;;;;;;;9.00;8.20;;;18.40;99.90;;;;;;4955154;28;20194;-68
2023/09/08 02:42:31;;;;;;;10.27;8.57;;;18.40;99.90;;;;;;4955169;28;20701;-69
2023/09/08 02:44:57;;;;;;;8.07;7.33;;;18.30;99.90;;;;;;4955351;29;20423;-69
2023/09/08 02:47:22;;;;;;;9.80;8.80;;;18.30;99.90;;;;;;4955180;29;20628;-69
2023/09/08 02:49:48;;;;;;;8.73;7.67;;;18.30;99.90;;;;;;4954870;28;20564;-68
2023/09/08 02:52:14;;;;;;;9.47;8.07;;;18.30;99.90;;;;;;4955177;29;20170;-69
2023/09/08 02:54:39;;;;;;;9.10;8.20;;;18.20;99.90;;;;;;4954889;29;20620;-69
2023/09/08 02:57:05;;;;;;;9.43;8.63;;;18.30;99.90;;;;;;4955133;28;20171;-69
2023/09/08 02:59:31;;;;;;;9.60;8.70;;;18.20;99.90;;;;;;4954512;28;20196;-69
2023/09/08 03:01:56;;;;;;;9.10;8.20;;;18.20;99.90;;;;;;4954910;29;20530;-69
2023/09/08 03:04:22;;;;;;;10.13;9.13;;;18.10;99.90;;;;;;4954776;28;20166;-68
2023/09/08 03:06:47;;;;;;;10.67;8.90;;;18.10;99.90;;;;;;4954924;29;20180;-69
2023/09/08 03:09:13;;;;;;;9.37;8.47;;;18.10;99.90;;;;;;4954349;29;20210;-67
2023/09/08 03:11:39;;;;;;;9.60;8.80;;;18.00;99.90;;;;;;4954774;29;20537;-68
2023/09/08 03:14:39;;;;;;;10.93;9.13;;;18.10;99.90;;;;;;4954853;28;20178;-68
2023/09/08 03:17:05;;;;;;;10.97;8.53;;;18.00;99.90;;;;;;4953355;28;20198;-70
2023/09/08 03:19:31;;;;;;;9.03;8.23;;;18.00;99.90;;;;;;4954638;29;20715;-69
2023/09/08 03:21:56;;;;;;;11.90;9.00;;;18.00;99.90;;;;;;4954639;28;20170;-66
2023/09/08 03:24:22;;;;;;;10.03;8.80;;;17.90;99.90;;;;;;4954333;28;20586;-67
2023/09/08 03:26:47;;;;;;;9.37;8.47;;;17.90;99.90;;;;;;4954424;29;20171;-66
2023/09/08 03:29:13;;;;;;;9.40;8.50;;;17.90;99.90;;;;;;4954165;28;20196;-67
2023/09/08 03:31:39;;;;;;;10.00;8.93;;;17.90;99.90;;;;;;4954479;29;20177;-67
2023/09/08 03:34:05;;;;;;;9.80;8.27;;;17.90;99.90;;;;;;4953963;28;20181;-68
2023/09/08 03:36:30;;;;;;;8.77;8.00;;;17.80;99.90;;;;;;4954156;29;20795;-67
2023/09/08 03:38:58;;;;;;;14.53;9.23;;;17.80;99.90;;;;;;4953759;28;20223;-67
2023/09/08 03:41:23;;;;;;;11.63;9.70;;;17.80;99.90;;;;;;4954301;28;20409;-68
2023/09/08 03:43:49;;;;;;;9.37;8.53;;;17.80;99.90;;;;;;4953934;28;20562;-68
2023/09/08 03:46:15;;;;;;;9.67;8.67;;;17.70;99.90;;;;;;4954319;28;20222;-68
2023/09/08 03:48:40;;;;;;;8.60;7.80;;;17.70;99.90;;;;;;4953657;29;20542;-67
2023/09/08 03:51:06;;;;;;;10.87;9.67;;;17.70;99.90;;;;;;4953926;29;20177;-67
2023/09/08 03:53:31;;;;;;;10.50;9.40;;;17.70;99.90;;;;;;4954255;29;20172;-68
2023/09/08 03:55:57;;;;;;;11.67;9.70;;;17.70;99.90;;;;;;4952608;28;20576;-68
2023/09/08 03:58:22;;;;;;;9.90;8.90;;;17.60;99.90;;;;;;4953812;29;20268;-67
2023/09/08 04:00:48;;;;;;;12.63;9.17;;;17.60;99.90;;;;;;4954114;29;20170;-68
2023/09/08 04:03:14;;;;;;;10.60;9.23;;;17.60;99.90;;;;;;4953654;29;20616;-68
2023/09/08 04:05:39;;;;;;;10.63;9.37;;;17.50;99.90;;;;;;4953904;29;20726;-67
2023/09/08 04:08:05;;;;;;;10.37;8.40;;;17.50;99.90;;;;;;4953125;29;20405;-67
2023/09/08 04:10:31;;;;;;;10.83;9.73;;;17.50;99.90;;;;;;4953202;28;20252;-67
2023/09/08 04:12:56;;;;;;;10.90;9.73;;;17.50;99.90;;;;;;4952837;29;20416;-67
2023/09/08 04:15:22;;;;;;;9.43;8.50;;;17.50;99.90;;;;;;4953280;28;20205;-67
2023/09/08 04:17:48;;;;;;;12.73;9.30;;;17.50;99.90;;;;;;4953341;28;20175;-68
2023/09/08 04:20:15;;;;;;;12.07;10.10;;;17.50;99.90;;;;;;4953152;28;20640;-67
2023/09/08 04:22:41;;;;;;;10.50;9.50;;;17.50;99.90;;;;;;4953251;28;20262;-67
2023/09/08 04:25:06;;;;;;;9.93;9.03;;;17.40;99.90;;;;;;4953150;28;20534;-68
2023/09/08 04:27:32;;;;;;;11.37;9.30;;;17.40;99.90;;;;;;4953691;29;20174;-68
2023/09/08 04:29:59;;;;;;;11.73;9.17;;;17.40;99.90;;;;;;4953035;28;20197;-69
2023/09/08 04:32:25;;;;;;;12.40;9.10;;;17.40;99.90;;;;;;4953470;28;20443;-69
2023/09/08 04:34:51;;;;;;;15.13;11.03;;;17.40;99.90;;;;;;4953109;28;20448;-69
2023/09/08 04:37:16;;;;;;;11.60;10.37;;;17.30;99.90;;;;;;4953156;28;20416;-68
2023/09/08 04:39:42;;;;;;;11.20;10.10;;;17.40;99.90;;;;;;4953002;29;20281;-68
2023/09/08 04:42:08;;;;;;;14.30;10.27;;;17.30;99.90;;;;;;4953349;29;20664;-68
2023/09/08 04:44:33;;;;;;;11.43;10.33;;;17.30;99.90;;;;;;4953092;28;20169;-68
2023/09/08 04:46:59;;;;;;;11.53;10.27;;;17.30;99.90;;;;;;4953361;29;20169;-69
2023/09/08 04:49:25;;;;;;;13.07;11.57;;;17.30;99.90;;;;;;4952976;28;20217;-68
2023/09/08 04:51:50;;;;;;;12.00;10.80;;;17.40;99.90;;;;;;4953043;29;20187;-69
2023/09/08 04:54:16;;;;;;;11.40;10.30;;;17.30;99.90;;;;;;4952796;28;20204;-67
2023/09/08 04:56:41;;;;;;;10.90;9.90;;;17.30;99.90;;;;;;4953037;28;20173;-68
2023/09/08 04:59:07;;;;;;;11.40;10.30;;;17.30;99.90;;;;;;4952648;28;20209;-68
2023/09/08 05:01:36;;;;;;;13.50;10.40;;;17.40;99.90;;;;;;4951529;29;20180;-69
2023/09/08 05:04:02;;;;;;;12.10;10.90;;;17.30;99.90;;;;;;4955801;28;20945;-72
2023/09/08 05:06:27;;;;;;;11.90;10.80;;;17.30;99.90;;;;;;4957520;29;20490;-72
2023/09/08 05:08:53;;;;;;;13.73;10.30;;;17.30;99.90;;;;;;4957219;28;20249;-72
2023/09/08 05:11:19;;;;;;;12.97;10.47;;;17.30;99.90;;;;;;4957421;28;20181;-72
2023/09/08 05:13:48;;;;;;;11.10;10.20;;;17.30;99.90;;;;;;4956880;28;20503;-71
2023/09/08 05:16:13;;;;;;;12.63;10.97;;;17.30;99.90;;;;;;4956663;28;20265;-73
2023/09/08 05:18:40;;;;;;;12.03;10.93;;;17.30;99.90;;;;;;4955655;28;20476;-73
2023/09/08 05:21:09;;;;;;;10.93;9.73;;;17.40;99.90;;;;;;4955680;28;20603;-73
2023/09/08 05:23:34;;;;;;;12.10;10.87;;;17.40;99.90;;;;;;4953500;28;20424;-72
2023/09/08 05:26:00;;;;;;;13.43;11.13;;;17.40;99.90;;;;;;4956436;29;20421;-72
2023/09/08 05:28:26;;;;;;;11.77;10.57;;;17.50;99.90;;;;;;4955740;28;20669;-72
2023/09/08 05:30:52;;;;;;;11.67;10.03;;;17.50;99.90;;;;;;4956979;28;20867;-74
2023/09/08 05:33:18;;;;;;;11.63;9.70;;;17.50;99.90;;;;;;4954545;28;20177;-72
2023/09/08 05:35:45;;;;;;;11.63;9.70;;;17.50;99.90;;;;;;4954932;28;20460;-73
2023/09/08 05:38:11;;;;;;;12.80;10.30;;;17.60;99.90;;;;;;4954232;28;20184;-71
2023/09/08 05:40:37;;;;;;;11.53;10.37;;;17.60;99.90;;;;;;4954186;28;20453;-71
2023/09/08 05:43:03;;;;;;;11.00;9.80;;;17.70;99.90;;;;;;4956429;28;20413;-71
2023/09/08 05:45:31;;;;;;;12.13;10.10;;;17.70;99.90;;;;;;4956594;28;20506;-72
2023/09/08 05:47:57;;;;;;;10.43;8.63;;;17.80;99.90;;;;;;4946849;28;20492;-72
2023/09/08 05:50:22;;;;;;;12.93;10.90;;;18.30;99.90;;;;;;4936847;29;20440;-72
2023/09/08 05:52:48;;;;;;;10.23;9.10;;;18.60;99.90;;;;;;4937403;29;20181;-71
2023/09/08 05:55:13;;;;;;;9.33;8.33;;;19.00;99.90;;;;;;4937521;29;20211;-71
2023/09/08 05:57:40;;;;;;;9.27;8.40;;;19.50;99.90;;;;;;4956727;28;20234;-73
2023/09/08 06:00:06;;;;;;;9.83;8.93;;;20.00;99.90;;;;;;4959105;28;20202;-71
2023/09/08 06:02:32;;;;;;;9.30;8.37;;;20.70;99.90;;;;;;4960545;28;20904;-72
2023/09/08 06:04:58;;;;;;;8.00;7.20;;;21.20;99.90;;;;;;4959680;29;20410;-71
2023/09/08 06:07:23;;;;;;;11.70;8.67;;;21.30;99.90;;;;;;4959278;29;20264;-73
2023/09/08 06:09:49;;;;;;;9.80;7.60;;;21.60;99.90;;;;;;4959051;28;20209;-73
2023/09/08 06:12:15;;;;;;;11.70;10.07;;;22.00;99.90;;;;;;4959020;28;20176;-73
2023/09/08 06:14:40;;;;;;;10.83;8.70;;;22.20;99.90;;;;;;4941540;29;20293;-72
2023/09/08 06:17:06;;;;;;;9.43;8.53;;;22.50;99.90;;;;;;4940558;29;20181;-72
2023/09/08 06:19:31;;;;;;;9.70;8.80;;;22.60;99.90;;;;;;4939833;29;20200;-72
2023/09/08 06:21:57;;;;;;;9.40;8.60;;;22.70;99.90;;;;;;4941124;29;20228;-72
2023/09/08 06:24:24;;;;;;;8.40;7.47;;;23.30;99.90;;;;;;4940480;29;20183;-72
2023/09/08 06:26:49;;;;;;;9.27;8.37;;;23.20;99.90;;;;;;4940975;29;20167;-73
2023/09/08 06:29:15;;;;;;;9.90;8.03;;;22.80;99.90;;;;;;4940358;29;20465;-73
2023/09/08 06:31:40;;;;;;;8.23;7.43;;;23.10;99.90;;;;;;4950132;29;20182;-71
2023/09/08 06:34:06;;;;;;;7.37;6.67;;;23.20;99.90;;;;;;4946172;28;20185;-71
2023/09/08 06:36:32;;;;;;;8.30;7.20;;;23.10;99.90;;;;;;4961869;29;20628;-72
2023/09/08 06:38:57;;;;;;;9.17;8.00;;;23.70;99.90;;;;;;4962792;28;20650;-72
2023/09/08 06:41:23;;;;;;;8.30;7.50;;;24.10;99.90;;;;;;4961558;29;20172;-73
2023/09/08 06:43:49;;;;;;;8.20;7.30;;;24.50;99.90;;;;;;4962317;28;20190;-73
2023/09/08 06:46:15;;;;;;;8.00;7.30;;;24.60;99.90;;;;;;4962000;28;20908;-73
2023/09/08 06:48:40;;;;;;;7.90;7.17;;;24.50;99.90;;;;;;4960917;28;20271;-73
2023/09/08 06:51:06;;;;;;;8.73;7.40;;;25.30;99.90;;;;;;4960231;28;20684;-72
2023/09/08 06:53:32;;;;;;;8.17;7.37;;;25.20;99.90;;;;;;4963703;29;20182;-72
2023/09/08 06:55:58;;;;;;;8.40;7.40;;;25.80;99.90;;;;;;4963889;28;20202;-73
2023/09/08 06:58:23;;;;;;;10.93;7.40;;;25.50;99.90;;;;;;4962186;29;20477;-73
2023/09/08 07:00:50;;;;;;;10.93;8.70;;;25.70;99.90;;;;;;4962081;29;20205;-73
2023/09/08 07:03:16;;;;;;;7.40;6.60;;;25.40;99.90;;;;;;4962819;28;20175;-73
2023/09/08 07:05:41;;;;;;;9.57;6.70;;;25.80;99.90;;;;;;4962078;28;20558;-73
2023/09/08 07:08:07;;;;;;;11.00;7.37;;;26.10;99.90;;;;;;4962296;29;20206;-72
2023/09/08 07:10:33;;;;;;;8.10;6.40;;;26.80;99.90;;;;;;4981655;23;20225;-70
2023/09/08 07:12:58;;;;;;;7.73;6.93;;;25.90;99.90;;;;;;4956506;29;20170;-70
2023/09/08 07:15:24;;;;;;;8.67;7.70;;;26.90;99.90;;;;;;4956259;29;20202;-70
2023/09/08 07:17:49;;;;;;;12.00;7.70;;;26.70;99.90;;;;;;4956266;28;20175;-69
2023/09/08 07:20:15;;;;;;;7.97;7.17;;;26.30;99.90;;;;;;4956176;28;20188;-69
2023/09/08 07:22:41;;;;;;;10.73;7.50;;;25.20;99.90;;;;;;4956120;28;20250;-69
2023/09/08 07:25:07;;;;;;;6.97;6.27;;;26.40;99.90;;;;;;4956387;28;20178;-69
2023/09/08 07:27:33;;;;;;;8.80;6.83;;;26.80;99.90;;;;;;4956252;28;20716;-70
2023/09/08 07:29:59;;;;;;;7.47;6.77;;;27.40;99.90;;;;;;4955837;28;20414;-74
2023/09/08 07:32:24;;;;;;;9.23;6.23;;;27.30;99.90;;;;;;4956072;28;20807;-70
2023/09/08 07:34:54;;;;;;;7.63;6.67;;;26.30;99.90;;;;;;4956089;28;20220;-69
2023/09/08 07:37:22;;;;;;;11.80;7.30;;;26.70;99.90;;;;;;4956480;28;20197;-71
2023/09/08 07:39:50;;;;;;;8.20;6.87;;;25.40;99.90;;;;;;4939852;29;20450;-74
2023/09/08 07:42:16;;;;;;;16.83;7.87;;;25.70;99.90;;;;;;4938914;29;20979;-70
2023/09/08 07:44:42;;;;;;;10.00;6.83;;;26.00;99.90;;;;;;4943999;29;20494;-70
2023/09/08 07:47:08;;;;;;;7.67;6.30;;;26.80;99.90;;;;;;4946412;29;20439;-70
2023/09/08 07:49:34;;;;;;;8.87;7.20;;;27.50;99.90;;;;;;4936343;29;20247;-69
2023/09/08 07:52:00;;;;;;;9.67;6.80;;;27.30;99.90;;;;;;4936729;29;20194;-70
2023/09/08 07:54:25;;;;;;;6.73;6.03;;;27.90;99.90;;;;;;4936868;29;20438;-71
2023/09/08 07:56:51;;;;;;;10.43;6.60;;;28.70;99.90;;;;;;4936914;29;20395;-72
2023/09/08 07:59:17;;;;;;;9.10;6.63;;;28.60;99.90;;;;;;4936358;29;20202;-69
2023/09/08 08:01:42;;;;;;;6.47;5.80;;;28.30;99.90;;;;;;4936180;29;20199;-69
2023/09/08 08:04:08;;;;;;;9.20;6.40;;;27.30;99.90;;;;;;4936369;29;20250;-70
2023/09/08 08:06:34;;;;;;;6.67;6.00;;;28.10;99.90;;;;;;4936249;29;20257;-70
2023/09/08 08:08:59;;;;;;;7.10;6.50;;;26.70;99.90;;;;;;4935879;29;20202;-74
2023/09/08 08:11:26;;;;;;;8.00;7.27;;;28.00;99.90;;;;;;4935897;29;20230;-69
2023/09/08 08:13:52;;;;;;;6.83;6.23;;;27.70;99.90;;;;;;4935757;29;20218;-72
2023/09/08 08:16:17;;;;;;;6.70;6.10;;;27.90;99.90;;;;;;4934639;29;20554;-69
2023/09/08 08:18:43;;;;;;;7.00;6.30;;;28.70;99.90;;;;;;4935990;29;20537;-69
2023/09/08 08:21:08;;;;;;;6.33;5.20;;;27.50;99.90;;;;;;4935835;29;20699;-69
2023/09/08 08:23:35;;;;;;;6.93;6.13;;;26.90;99.90;;;;;;4935734;29;20167;-70
2023/09/08 08:26:01;;;;;;;10.03;6.37;;;26.90;99.90;;;;;;4946199;29;20178;-70
2023/09/08 08:28:26;;;;;;;9.23;5.77;;;28.50;99.90;;;;;;4954403;28;20862;-71
2023/09/08 08:30:52;;;;;;;10.30;6.63;;;28.50;99.90;;;;;;4954831;28;20198;-70
2023/09/08 08:33:19;;;;;;;6.53;5.80;;;28.30;99.90;;;;;;4955072;29;20497;-69
2023/09/08 08:35:52;;;;;;;6.67;6.07;;;28.50;99.90;;;;;;4955129;28;20625;-70
2023/09/08 08:38:19;;;;;;;8.27;7.20;;;29.80;99.90;;;;;;4950359;29;20925;-71
2023/09/08 08:40:44;;;;;;;8.73;6.07;;;29.10;99.90;;;;;;4935827;29;20530;-74
2023/09/08 08:43:10;;;;;;;7.03;6.13;;;29.00;99.90;;;;;;4936122;29;20486;-70
2023/09/08 08:45:38;;;;;;;6.70;6.10;;;29.50;99.50;;;;;;4935925;29;20171;-70
2023/09/08 08:48:05;;;;;;;6.70;5.73;;;28.50;99.90;;;;;;4947391;29;20537;-70
2023/09/08 08:50:32;;;;;;;7.37;6.67;;;29.40;99.90;;;;;;4954303;28;20433;-72
2023/09/08 08:52:58;;;;;;;6.10;5.50;;;29.70;99.90;;;;;;4954379;28;20465;-70
2023/09/08 08:55:29;;;;;;;10.17;5.90;;;30.60;98.60;;;;;;4954230;29;20461;-70
2023/09/08 08:57:55;;;;;;;6.00;5.43;;;29.00;99.90;;;;;;4954205;28;20170;-70
2023/09/08 09:00:21;;;;;;;6.20;5.70;;;28.50;99.90;;;;;;4954059;28;20422;-70
2023/09/08 09:02:49;;;;;;;6.07;5.43;;;28.90;99.90;;;;;;4954450;28;20402;-70
2023/09/08 09:05:15;;;;;;;6.43;5.93;;;29.10;99.60;;;;;;4954840;28;20465;-71
2023/09/08 09:07:44;;;;;;;6.30;5.70;;;30.00;99.60;;;;;;4954959;28;20410;-70
2023/09/08 09:10:10;;;;;;;6.83;6.23;;;30.10;98.90;;;;;;4954188;29;20476;-71
2023/09/08 09:12:39;;;;;;;6.20;5.10;;;29.60;98.50;;;;;;4954481;28;20420;-71
2023/09/08 09:15:06;;;;;;;8.00;6.80;;;29.80;98.00;;;;;;4954218;29;20508;-70
2023/09/08 09:17:35;;;;;;;5.90;5.40;;;29.60;98.00;;;;;;4952905;29;20908;-72
2023/09/08 09:20:17;;;;;;;6.30;5.80;;;29.50;99.00;;;;;;4953777;28;20406;-69
2023/09/08 09:22:44;;;;;;;7.70;5.67;;;29.30;98.20;;;;;;4953890;28;20421;-69
2023/09/08 09:25:10;;;;;;;5.43;4.97;;;28.60;99.80;;;;;;4953933;28;20963;-69
2023/09/08 09:27:38;;;;;;;5.87;5.27;;;29.40;99.20;;;;;;4954032;28;20410;-73
2023/09/08 09:30:04;;;;;;;5.83;5.30;;;29.40;98.00;;;;;;4953873;28;20418;-71
2023/09/08 09:32:31;;;;;;;5.23;4.83;;;29.40;97.90;;;;;;4954040;29;20418;-71
2023/09/08 09:34:57;;;;;;;6.67;5.33;;;28.90;98.50;;;;;;4953890;28;20887;-74
2023/09/08 09:37:23;;;;;;;5.67;5.27;;;28.60;98.70;;;;;;4953787;29;20410;-69
2023/09/08 09:39:50;;;;;;;8.40;6.03;;;28.90;98.80;;;;;;4936675;29;20494;-72
2023/09/08 09:42:17;;;;;;;5.53;5.03;;;29.20;98.70;;;;;;4934746;29;20407;-72
2023/09/08 09:44:42;;;;;;;5.47;4.80;;;29.70;99.30;;;;;;4934465;29;20776;-69
2023/09/08 09:47:09;;;;;;;6.90;5.57;;;29.30;97.50;;;;;;4939230;29;20505;-72
2023/09/08 09:49:58;;;;;;;5.60;5.20;;;28.50;98.80;;;;;;4953466;28;20170;-73
2023/09/08 09:52:25;;;;;;;6.53;5.93;;;27.90;99.20;;;;;;4953967;28;20477;-68
2023/09/08 09:54:54;;;;;;;10.10;6.50;;;28.10;99.30;;;;;;4953862;28;20504;-70
2023/09/08 09:57:21;;;;;;;5.67;5.17;;;28.20;99.60;;;;;;4954328;28;20409;-73
2023/09/08 09:59:50;;;;;;;6.20;5.60;;;27.70;99.60;;;;;;4953575;28;20413;-70
2023/09/08 10:02:21;;;;;;;8.00;6.20;;;27.50;99.90;;;;;;4953942;28;20408;-70
2023/09/08 10:04:49;;;;;;;5.63;5.07;;;27.60;99.90;;;;;;4953520;28;20418;-70
2023/09/08 10:07:16;;;;;;;6.53;5.43;;;27.40;99.90;;;;;;4953910;28;20467;-72
2023/09/08 10:09:42;;;;;;;8.00;6.67;;;27.10;99.90;;;;;;4955012;28;20471;-72
2023/09/08 10:12:09;;;;;;;7.67;6.90;;;27.10;99.90;;;;;;4957462;28;20861;-71
2023/09/08 10:14:40;;;;;;;5.70;5.20;;;27.00;99.90;;;;;;4957497;29;20193;-70
2023/09/08 10:17:11;;;;;;;5.90;4.93;;;26.60;99.90;;;;;;4957709;28;20411;-71
2023/09/08 10:19:41;;;;;;;7.83;5.80;;;26.60;99.90;;;;;;4957251;28;20726;-69
2023/09/08 10:22:11;;;;;;;6.50;5.90;;;26.80;99.90;;;;;;4957683;28;20433;-70
2023/09/08 10:24:40;;;;;;;8.10;5.77;;;26.90;99.90;;;;;;4957637;28;20422;-69
2023/09/08 10:27:11;;;;;;;6.13;4.97;;;27.10;99.90;;;;;;4957620;28;20487;-70
2023/09/08 10:29:37;;;;;;;6.43;5.00;;;27.10;99.90;;;;;;4956920;28;20416;-70
2023/09/08 10:32:05;;;;;;;7.23;5.00;;;27.10;99.90;;;;;;4957230;28;20861;-70
2023/09/08 10:34:32;;;;;;;6.07;5.47;;;26.90;99.90;;;;;;4957042;29;20761;-69
2023/09/08 10:36:58;;;;;;;8.10;5.50;;;26.90;99.90;;;;;;4957268;28;20451;-70
2023/09/08 10:39:41;;;;;;;5.90;5.30;;;27.00;99.90;;;;;;4943546;29;20897;-70
2023/09/08 10:42:20;;;;;;;5.77;5.13;;;27.10;99.90;;;;;;4938476;29;20198;-69
2023/09/08 10:44:51;;;;;;;6.40;5.80;;;27.10;99.90;;;;;;4939426;29;20421;-70
2023/09/08 10:47:24;;;;;;;6.03;5.53;;;27.10;99.90;;;;;;4945847;29;20409;-70
2023/09/08 10:49:56;;;;;;;7.40;5.50;;;27.20;99.90;;;;;;4959947;28;20408;-69
2023/09/08 10:52:23;;;;;;;9.20;5.20;;;27.40;99.90;;;;;;4962782;28;20421;-71
2023/09/08 10:54:51;;;;;;;6.27;5.03;;;27.40;99.90;;;;;;4956828;28;20449;-70
2023/09/08 10:57:20;;;;;;;5.63;5.23;;;27.20;99.60;;;;;;4957947;28;20432;-71
2023/09/08 10:59:53;;;;;;;6.57;5.97;;;27.20;99.90;;;;;;4958095;28;20445;-71
2023/09/08 11:02:38;;;;;;;6.03;5.53;;;27.30;99.90;;;;;;4957919;28;20416;-70
2023/09/08 11:05:09;;;;;;;6.10;5.60;;;27.40;99.70;;;;;;4956663;28;20418;-68
2023/09/08 11:07:38;;;;;;;5.40;4.90;;;27.50;99.40;;;;;;4958968;28;20409;-70
2023/09/08 11:10:05;;;;;;;7.77;5.97;;;27.50;99.10;;;;;;4956350;29;20467;-70
2023/09/08 11:12:31;;;;;;;5.60;5.07;;;27.40;99.40;;;;;;4956865;29;20453;-71
2023/09/08 11:14:58;;;;;;;5.90;5.40;;;27.30;99.10;;;;;;4956448;29;20472;-70
2023/09/08 11:17:27;;;;;;;6.00;5.50;;;27.20;98.70;;;;;;4956360;28;20786;-69
2023/09/08 11:19:54;;;;;;;5.10;4.70;;;27.40;98.90;;;;;;4955929;28;20444;-72
2023/09/08 11:22:24;;;;;;;9.10;5.97;;;27.50;99.40;;;;;;4956395;29;20432;-69
2023/09/08 11:24:50;;;;;;;6.77;5.77;;;27.60;99.30;;;;;;4956184;28;20427;-71
2023/09/08 11:27:16;;;;;;;6.63;4.93;;;27.70;98.80;;;;;;4956152;28;20488;-71
2023/09/08 11:29:41;;;;;;;5.50;5.00;;;27.50;98.90;;;;;;4954645;29;20196;-69
2023/09/08 11:32:08;;;;;;;5.50;5.00;;;27.60;98.30;;;;;;4945102;29;20234;-69
2023/09/08 11:34:37;;;;;;;5.80;4.73;;;27.50;98.60;;;;;;4936870;29;20197;-70
2023/09/08 11:37:10;;;;;;;5.63;5.10;;;27.50;97.70;;;;;;4936927;29;20417;-70
2023/09/08 11:39:38;;;;;;;4.93;4.53;;;27.50;98.70;;;;;;4936482;29;20497;-70
2023/09/08 11:42:04;;;;;;;4.80;4.37;;;27.60;98.50;;;;;;4953767;29;20432;-70
2023/09/08 11:44:29;;;;;;;5.43;4.90;;;27.50;97.90;;;;;;4956145;28;20410;-70
2023/09/08 11:46:57;;;;;;;5.37;4.90;;;27.40;97.70;;;;;;4955945;28;20428;-69
2023/09/08 11:49:23;;;;;;;3.93;3.63;;;27.70;97.80;;;;;;4955835;28;20170;-70
2023/09/08 11:51:49;;;;;;;6.27;5.50;;;27.80;97.20;;;;;;4955583;28;20931;-68
2023/09/08 11:54:15;;;;;;;5.93;5.43;;;28.00;96.90;;;;;;4955582;29;20169;-70
2023/09/08 11:56:41;;;;;;;5.47;4.73;;;28.10;97.00;;;;;;4955480;28;20426;-71
2023/09/08 11:59:08;;;;;;;5.83;5.33;;;28.00;97.30;;;;;;4955351;28;20516;-71
2023/09/08 12:01:33;;;;;;;7.70;4.20;;;28.00;97.70;;;;;;4953963;29;20446;-68
2023/09/08 12:03:59;;;;;;;5.70;5.27;;;28.10;98.10;;;;;;4955383;28;20418;-70
2023/09/08 12:06:28;;;;;;;5.77;4.90;;;28.00;98.20;;;;;;4955408;29;20604;-71
2023/09/08 12:09:02;;;;;;;9.30;5.97;;;28.00;97.70;;;;;;4955191;28;20190;-70
2023/09/08 12:11:34;;;;;;;4.73;4.33;;;28.00;97.10;;;;;;4955255;28;20453;-70
2023/09/08 12:14:01;;;;;;;5.00;4.60;;;27.70;96.60;;;;;;4954167;28;20468;-68
2023/09/08 12:16:26;;;;;;;5.30;4.60;;;27.70;97.40;;;;;;4955387;28;20464;-69
2023/09/08 12:18:52;;;;;;;4.63;4.23;;;27.50;97.40;;;;;;4955099;28;20782;-70
2023/09/08 12:21:18;;;;;;;7.00;4.70;;;27.80;98.00;;;;;;4955557;29;20196;-70
2023/09/08 12:23:50;;;;;;;5.50;5.00;;;27.80;97.60;;;;;;4953942;28;20546;-71
2023/09/08 12:26:16;;;;;;;5.57;5.07;;;27.90;98.00;;;;;;4953818;28;20682;-70
2023/09/08 12:28:42;;;;;;;7.70;5.43;;;27.90;97.60;;;;;;4954961;28;20492;-69
2023/09/08 12:31:13;;;;;;;7.83;5.20;;;27.80;97.00;;;;;;4955051;28;20233;-69
2023/09/08 12:33:39;;;;;;;5.40;4.97;;;27.50;97.60;;;;;;4954758;28;20878;-69
2023/09/08 12:36:31;;;;;;;4.90;4.50;;;27.50;97.10;;;;;;4954662;29;20456;-69
2023/09/08 12:38:56;;;;;;;10.00;5.43;;;27.70;97.10;;;;;;4942866;28;20186;-69
2023/09/08 12:41:22;;;;;;;6.83;5.03;;;27.70;97.70;;;;;;4946778;28;20426;-69